sensor_id;sensor_type;location;lat;lon;timestamp;P1;durP1;ratioP1;P2;durP2;ratioP2
315;SDS011;14128;48.686;9.738;2024-03-17T00:02:25;15.40;;;8.97;;
315;SDS011;14128;48.686;9.738;2024-03-17T00:04:52;16.23;;;9.10;;
315;SDS011;14128;48.686;9.738;2024-03-17T00:07:20;11.67;;;8.77;;
315;SDS011;14128;48.686;9.738;2024-03-17T00:09:47;11.03;;;9.00;;
315;SDS011;14128;48.686;9.738;2024-03-17T00:12:15;14.47;;;9.50;;
315;SDS011;14128;48.686;9.738;2024-03-17T00:14:41;13.00;;;9.57;;
315;SDS011;14128;48.686;9.738;2024-03-17T00:17:10;11.57;;;8.53;;
315;SDS011;14128;48.686;9.738;2024-03-17T00:19:36;12.47;;;10.67;;
315;SDS011;14128;48.686;9.738;2024-03-17T00:22:03;12.40;;;9.40;;
315;SDS011;14128;48.686;9.738;2024-03-17T00:24:32;15.30;;;9.50;;
315;SDS011;14128;48.686;9.738;2024-03-17T00:27:00;12.73;;;10.10;;
315;SDS011;14128;48.686;9.738;2024-03-17T00:29:26;14.57;;;10.40;;
315;SDS011;14128;48.686;9.738;2024-03-17T00:31:53;14.63;;;10.30;;
315;SDS011;14128;48.686;9.738;2024-03-17T00:34:20;13.67;;;9.53;;
315;SDS011;14128;48.686;9.738;2024-03-17T00:36:47;14.30;;;9.43;;
315;SDS011;14128;48.686;9.738;2024-03-17T00:39:13;13.13;;;9.80;;
315;SDS011;14128;48.686;9.738;2024-03-17T00:41:43;10.70;;;9.13;;
315;SDS011;14128;48.686;9.738;2024-03-17T00:44:09;15.07;;;9.70;;
315;SDS011;14128;48.686;9.738;2024-03-17T00:46:36;11.60;;;8.70;;
315;SDS011;14128;48.686;9.738;2024-03-17T00:49:03;11.30;;;9.93;;
315;SDS011;14128;48.686;9.738;2024-03-17T00:51:31;12.53;;;8.50;;
315;SDS011;14128;48.686;9.738;2024-03-17T00:53:57;10.93;;;9.20;;
315;SDS011;14128;48.686;9.738;2024-03-17T00:56:24;9.73;;;8.00;;
315;SDS011;14128;48.686;9.738;2024-03-17T00:58:51;12.53;;;8.63;;
315;SDS011;14128;48.686;9.738;2024-03-17T01:01:18;19.67;;;8.83;;
315;SDS011;14128;48.686;9.738;2024-03-17T01:03:45;10.60;;;7.60;;
315;SDS011;14128;48.686;9.738;2024-03-17T01:06:13;8.83;;;6.80;;
315;SDS011;14128;48.686;9.738;2024-03-17T01:08:39;14.77;;;11.07;;
315;SDS011;14128;48.686;9.738;2024-03-17T01:11:06;14.53;;;12.30;;
315;SDS011;14128;48.686;9.738;2024-03-17T01:13:33;16.83;;;10.40;;
315;SDS011;14128;48.686;9.738;2024-03-17T01:16:04;14.57;;;8.93;;
315;SDS011;14128;48.686;9.738;2024-03-17T01:18:30;10.03;;;6.03;;
315;SDS011;14128;48.686;9.738;2024-03-17T01:20:57;11.50;;;5.83;;
315;SDS011;14128;48.686;9.738;2024-03-17T01:23:23;7.07;;;5.40;;
315;SDS011;14128;48.686;9.738;2024-03-17T01:25:50;9.73;;;7.70;;
315;SDS011;14128;48.686;9.738;2024-03-17T01:28:17;13.50;;;11.60;;
315;SDS011;14128;48.686;9.738;2024-03-17T01:30:44;9.57;;;9.07;;
315;SDS011;14128;48.686;9.738;2024-03-17T01:33:13;9.83;;;8.67;;
315;SDS011;14128;48.686;9.738;2024-03-17T01:35:42;10.13;;;7.40;;
315;SDS011;14128;48.686;9.738;2024-03-17T01:38:08;16.87;;;8.27;;
315;SDS011;14128;48.686;9.738;2024-03-17T01:40:36;11.53;;;8.33;;
315;SDS011;14128;48.686;9.738;2024-03-17T01:43:02;10.70;;;7.20;;
315;SDS011;14128;48.686;9.738;2024-03-17T01:45:29;9.00;;;7.07;;
315;SDS011;14128;48.686;9.738;2024-03-17T01:47:57;13.40;;;9.10;;
315;SDS011;14128;48.686;9.738;2024-03-17T01:50:25;11.77;;;9.30;;
315;SDS011;14128;48.686;9.738;2024-03-17T01:52:53;12.33;;;10.23;;
315;SDS011;14128;48.686;9.738;2024-03-17T01:55:20;10.57;;;9.63;;
315;SDS011;14128;48.686;9.738;2024-03-17T01:57:47;10.57;;;7.73;;
315;SDS011;14128;48.686;9.738;2024-03-17T02:00:14;9.40;;;6.80;;
315;SDS011;14128;48.686;9.738;2024-03-17T02:02:40;11.20;;;7.70;;
315;SDS011;14128;48.686;9.738;2024-03-17T02:05:08;9.50;;;7.63;;
315;SDS011;14128;48.686;9.738;2024-03-17T02:07:36;8.73;;;7.10;;
315;SDS011;14128;48.686;9.738;2024-03-17T02:10:04;9.27;;;7.80;;
315;SDS011;14128;48.686;9.738;2024-03-17T02:12:30;10.90;;;7.70;;
315;SDS011;14128;48.686;9.738;2024-03-17T02:14:58;11.40;;;7.50;;
315;SDS011;14128;48.686;9.738;2024-03-17T02:17:24;9.87;;;7.30;;
315;SDS011;14128;48.686;9.738;2024-03-17T02:19:52;12.30;;;7.70;;
315;SDS011;14128;48.686;9.738;2024-03-17T02:22:20;11.57;;;8.20;;
315;SDS011;14128;48.686;9.738;2024-03-17T02:24:47;12.63;;;7.97;;
315;SDS011;14128;48.686;9.738;2024-03-17T02:27:13;14.53;;;8.07;;
315;SDS011;14128;48.686;9.738;2024-03-17T02:29:40;11.20;;;7.70;;
315;SDS011;14128;48.686;9.738;2024-03-17T02:32:06;11.73;;;7.60;;
315;SDS011;14128;48.686;9.738;2024-03-17T02:34:34;13.17;;;8.33;;
315;SDS011;14128;48.686;9.738;2024-03-17T02:37:00;13.67;;;8.13;;
315;SDS011;14128;48.686;9.738;2024-03-17T02:39:29;16.10;;;8.63;;
315;SDS011;14128;48.686;9.738;2024-03-17T02:41:59;15.47;;;9.27;;
315;SDS011;14128;48.686;9.738;2024-03-17T02:44:26;11.60;;;7.30;;
315;SDS011;14128;48.686;9.738;2024-03-17T02:46:52;14.07;;;8.27;;
315;SDS011;14128;48.686;9.738;2024-03-17T02:49:19;13.27;;;8.93;;
315;SDS011;14128;48.686;9.738;2024-03-17T02:51:47;13.47;;;7.43;;
315;SDS011;14128;48.686;9.738;2024-03-17T02:54:14;16.40;;;8.73;;
315;SDS011;14128;48.686;9.738;2024-03-17T02:56:43;13.57;;;8.50;;
315;SDS011;14128;48.686;9.738;2024-03-17T02:59:10;11.57;;;8.40;;
315;SDS011;14128;48.686;9.738;2024-03-17T03:01:37;9.70;;;6.57;;
315;SDS011;14128;48.686;9.738;2024-03-17T03:04:04;11.90;;;7.90;;
315;SDS011;14128;48.686;9.738;2024-03-17T03:06:31;11.57;;;8.10;;
315;SDS011;14128;48.686;9.738;2024-03-17T03:08:59;11.47;;;8.07;;
315;SDS011;14128;48.686;9.738;2024-03-17T03:11:26;13.43;;;9.03;;
315;SDS011;14128;48.686;9.738;2024-03-17T03:13:54;11.13;;;8.17;;
315;SDS011;14128;48.686;9.738;2024-03-17T03:16:21;11.10;;;7.00;;
315;SDS011;14128;48.686;9.738;2024-03-17T03:18:50;12.43;;;7.40;;
315;SDS011;14128;48.686;9.738;2024-03-17T03:21:17;11.40;;;7.70;;
315;SDS011;14128;48.686;9.738;2024-03-17T03:23:44;15.43;;;9.60;;
315;SDS011;14128;48.686;9.738;2024-03-17T03:26:12;18.10;;;11.17;;
315;SDS011;14128;48.686;9.738;2024-03-17T03:28:39;15.60;;;9.77;;
315;SDS011;14128;48.686;9.738;2024-03-17T03:31:11;16.40;;;11.63;;
315;SDS011;14128;48.686;9.738;2024-03-17T03:33:39;16.20;;;9.47;;
315;SDS011;14128;48.686;9.738;2024-03-17T03:36:07;20.03;;;11.93;;
315;SDS011;14128;48.686;9.738;2024-03-17T03:38:33;12.03;;;8.50;;
315;SDS011;14128;48.686;9.738;2024-03-17T03:41:05;12.17;;;7.33;;
315;SDS011;14128;48.686;9.738;2024-03-17T03:43:32;12.67;;;7.87;;
315;SDS011;14128;48.686;9.738;2024-03-17T03:45:59;12.80;;;7.57;;
315;SDS011;14128;48.686;9.738;2024-03-17T03:48:28;10.10;;;6.80;;
315;SDS011;14128;48.686;9.738;2024-03-17T03:50:55;11.77;;;7.87;;
315;SDS011;14128;48.686;9.738;2024-03-17T03:53:22;13.07;;;7.57;;
315;SDS011;14128;48.686;9.738;2024-03-17T03:55:49;13.43;;;8.17;;
315;SDS011;14128;48.686;9.738;2024-03-17T03:58:16;11.87;;;8.73;;
315;SDS011;14128;48.686;9.738;2024-03-17T04:00:43;9.50;;;7.57;;
315;SDS011;14128;48.686;9.738;2024-03-17T04:03:11;11.83;;;7.53;;
315;SDS011;14128;48.686;9.738;2024-03-17T04:05:39;14.37;;;8.67;;
315;SDS011;14128;48.686;9.738;2024-03-17T04:08:06;13.90;;;9.20;;
315;SDS011;14128;48.686;9.738;2024-03-17T04:10:33;14.10;;;8.60;;
315;SDS011;14128;48.686;9.738;2024-03-17T04:13:01;14.90;;;8.77;;
315;SDS011;14128;48.686;9.738;2024-03-17T04:15:29;17.70;;;11.37;;
315;SDS011;14128;48.686;9.738;2024-03-17T04:17:56;21.87;;;10.27;;
315;SDS011;14128;48.686;9.738;2024-03-17T04:20:23;12.97;;;8.83;;
315;SDS011;14128;48.686;9.738;2024-03-17T04:22:52;14.17;;;9.03;;
315;SDS011;14128;48.686;9.738;2024-03-17T04:25:19;12.17;;;9.53;;
315;SDS011;14128;48.686;9.738;2024-03-17T04:27:46;12.40;;;9.20;;
315;SDS011;14128;48.686;9.738;2024-03-17T04:30:13;12.43;;;8.47;;
315;SDS011;14128;48.686;9.738;2024-03-17T04:32:41;16.87;;;8.97;;
315;SDS011;14128;48.686;9.738;2024-03-17T04:35:08;15.77;;;10.53;;
315;SDS011;14128;48.686;9.738;2024-03-17T04:37:35;15.93;;;9.87;;
315;SDS011;14128;48.686;9.738;2024-03-17T04:40:06;16.67;;;9.80;;
315;SDS011;14128;48.686;9.738;2024-03-17T04:42:35;14.63;;;10.17;;
315;SDS011;14128;48.686;9.738;2024-03-17T04:45:04;20.70;;;11.30;;
315;SDS011;14128;48.686;9.738;2024-03-17T04:47:31;12.47;;;8.80;;
315;SDS011;14128;48.686;9.738;2024-03-17T04:49:59;15.10;;;9.60;;
315;SDS011;14128;48.686;9.738;2024-03-17T04:52:26;16.37;;;11.17;;
315;SDS011;14128;48.686;9.738;2024-03-17T04:54:53;18.17;;;10.90;;
315;SDS011;14128;48.686;9.738;2024-03-17T04:57:21;17.33;;;9.90;;
315;SDS011;14128;48.686;9.738;2024-03-17T04:59:49;14.30;;;8.77;;
315;SDS011;14128;48.686;9.738;2024-03-17T05:02:16;15.80;;;8.47;;
315;SDS011;14128;48.686;9.738;2024-03-17T05:04:43;14.13;;;9.00;;
315;SDS011;14128;48.686;9.738;2024-03-17T05:07:10;15.63;;;8.87;;
315;SDS011;14128;48.686;9.738;2024-03-17T05:09:37;12.20;;;7.83;;
315;SDS011;14128;48.686;9.738;2024-03-17T05:12:04;14.87;;;8.60;;
315;SDS011;14128;48.686;9.738;2024-03-17T05:14:33;12.20;;;8.70;;
315;SDS011;14128;48.686;9.738;2024-03-17T05:17:01;10.80;;;6.80;;
315;SDS011;14128;48.686;9.738;2024-03-17T05:19:28;10.83;;;7.10;;
315;SDS011;14128;48.686;9.738;2024-03-17T05:21:55;8.47;;;5.43;;
315;SDS011;14128;48.686;9.738;2024-03-17T05:24:22;14.57;;;7.50;;
315;SDS011;14128;48.686;9.738;2024-03-17T05:26:49;16.30;;;7.97;;
315;SDS011;14128;48.686;9.738;2024-03-17T05:29:16;11.47;;;7.20;;
315;SDS011;14128;48.686;9.738;2024-03-17T05:31:44;12.67;;;7.90;;
315;SDS011;14128;48.686;9.738;2024-03-17T05:34:12;10.70;;;6.33;;
315;SDS011;14128;48.686;9.738;2024-03-17T05:36:39;10.30;;;7.10;;
315;SDS011;14128;48.686;9.738;2024-03-17T05:39:06;11.50;;;8.03;;
315;SDS011;14128;48.686;9.738;2024-03-17T05:41:33;13.93;;;7.63;;
315;SDS011;14128;48.686;9.738;2024-03-17T05:44:00;15.73;;;9.27;;
315;SDS011;14128;48.686;9.738;2024-03-17T05:46:28;10.90;;;7.93;;
315;SDS011;14128;48.686;9.738;2024-03-17T05:48:57;11.57;;;8.67;;
315;SDS011;14128;48.686;9.738;2024-03-17T05:51:24;11.67;;;8.43;;
315;SDS011;14128;48.686;9.738;2024-03-17T05:53:52;11.27;;;7.10;;
315;SDS011;14128;48.686;9.738;2024-03-17T05:56:21;18.40;;;8.37;;
315;SDS011;14128;48.686;9.738;2024-03-17T05:58:49;14.83;;;8.60;;
315;SDS011;14128;48.686;9.738;2024-03-17T06:01:16;12.13;;;7.17;;
315;SDS011;14128;48.686;9.738;2024-03-17T06:03:44;12.93;;;8.27;;
315;SDS011;14128;48.686;9.738;2024-03-17T06:06:12;13.40;;;8.83;;
315;SDS011;14128;48.686;9.738;2024-03-17T06:08:40;14.20;;;8.20;;
315;SDS011;14128;48.686;9.738;2024-03-17T06:11:07;14.30;;;9.60;;
315;SDS011;14128;48.686;9.738;2024-03-17T06:13:34;10.83;;;7.83;;
315;SDS011;14128;48.686;9.738;2024-03-17T06:16:03;14.80;;;9.10;;
315;SDS011;14128;48.686;9.738;2024-03-17T06:18:30;17.90;;;10.47;;
315;SDS011;14128;48.686;9.738;2024-03-17T06:20:57;13.87;;;8.70;;
315;SDS011;14128;48.686;9.738;2024-03-17T06:23:26;15.23;;;9.00;;
315;SDS011;14128;48.686;9.738;2024-03-17T06:25:53;15.80;;;9.80;;
315;SDS011;14128;48.686;9.738;2024-03-17T06:28:21;17.20;;;9.60;;
315;SDS011;14128;48.686;9.738;2024-03-17T06:30:55;20.63;;;10.63;;
315;SDS011;14128;48.686;9.738;2024-03-17T06:33:24;15.53;;;8.67;;
315;SDS011;14128;48.686;9.738;2024-03-17T06:35:50;13.03;;;9.23;;
315;SDS011;14128;48.686;9.738;2024-03-17T06:38:17;16.27;;;9.73;;
315;SDS011;14128;48.686;9.738;2024-03-17T06:40:49;14.87;;;10.10;;
315;SDS011;14128;48.686;9.738;2024-03-17T06:43:16;14.90;;;8.23;;
315;SDS011;14128;48.686;9.738;2024-03-17T06:45:43;12.90;;;8.20;;
315;SDS011;14128;48.686;9.738;2024-03-17T06:48:10;11.07;;;8.80;;
315;SDS011;14128;48.686;9.738;2024-03-17T06:50:38;12.63;;;8.47;;
315;SDS011;14128;48.686;9.738;2024-03-17T06:53:06;13.40;;;8.23;;
315;SDS011;14128;48.686;9.738;2024-03-17T06:55:34;14.47;;;9.10;;
315;SDS011;14128;48.686;9.738;2024-03-17T06:58:03;12.20;;;9.27;;
315;SDS011;14128;48.686;9.738;2024-03-17T07:00:31;13.43;;;8.90;;
315;SDS011;14128;48.686;9.738;2024-03-17T07:02:58;16.13;;;9.60;;
315;SDS011;14128;48.686;9.738;2024-03-17T07:05:25;12.30;;;7.80;;
315;SDS011;14128;48.686;9.738;2024-03-17T07:07:55;15.87;;;10.67;;
315;SDS011;14128;48.686;9.738;2024-03-17T07:10:22;10.00;;;8.20;;
315;SDS011;14128;48.686;9.738;2024-03-17T07:12:51;13.77;;;10.40;;
315;SDS011;14128;48.686;9.738;2024-03-17T07:15:19;12.70;;;9.33;;
315;SDS011;14128;48.686;9.738;2024-03-17T07:17:46;14.07;;;9.03;;
315;SDS011;14128;48.686;9.738;2024-03-17T07:20:14;20.63;;;9.37;;
315;SDS011;14128;48.686;9.738;2024-03-17T07:22:41;16.50;;;10.70;;
315;SDS011;14128;48.686;9.738;2024-03-17T07:25:08;15.77;;;9.43;;
315;SDS011;14128;48.686;9.738;2024-03-17T07:27:35;19.70;;;9.27;;
315;SDS011;14128;48.686;9.738;2024-03-17T07:30:03;12.13;;;9.60;;
315;SDS011;14128;48.686;9.738;2024-03-17T07:32:33;17.73;;;9.57;;
315;SDS011;14128;48.686;9.738;2024-03-17T07:35:00;13.93;;;9.03;;
315;SDS011;14128;48.686;9.738;2024-03-17T07:37:28;20.30;;;11.23;;
315;SDS011;14128;48.686;9.738;2024-03-17T07:39:55;15.83;;;9.23;;
315;SDS011;14128;48.686;9.738;2024-03-17T07:42:22;15.47;;;11.10;;
315;SDS011;14128;48.686;9.738;2024-03-17T07:44:50;13.07;;;9.87;;
315;SDS011;14128;48.686;9.738;2024-03-17T07:47:17;18.80;;;11.83;;
315;SDS011;14128;48.686;9.738;2024-03-17T07:49:47;14.40;;;9.87;;
315;SDS011;14128;48.686;9.738;2024-03-17T07:52:14;14.60;;;10.43;;
315;SDS011;14128;48.686;9.738;2024-03-17T07:54:41;12.97;;;9.63;;
315;SDS011;14128;48.686;9.738;2024-03-17T07:57:08;14.63;;;10.20;;
315;SDS011;14128;48.686;9.738;2024-03-17T07:59:35;15.63;;;10.53;;
315;SDS011;14128;48.686;9.738;2024-03-17T08:02:02;19.80;;;10.97;;
315;SDS011;14128;48.686;9.738;2024-03-17T08:04:29;18.63;;;10.40;;
315;SDS011;14128;48.686;9.738;2024-03-17T08:06:58;14.60;;;9.20;;
315;SDS011;14128;48.686;9.738;2024-03-17T08:09:25;14.93;;;9.73;;
315;SDS011;14128;48.686;9.738;2024-03-17T08:11:52;13.70;;;10.77;;
315;SDS011;14128;48.686;9.738;2024-03-17T08:14:19;16.03;;;11.30;;
315;SDS011;14128;48.686;9.738;2024-03-17T08:16:46;17.20;;;11.57;;
315;SDS011;14128;48.686;9.738;2024-03-17T08:19:14;14.43;;;10.07;;
315;SDS011;14128;48.686;9.738;2024-03-17T08:21:41;17.70;;;13.37;;
315;SDS011;14128;48.686;9.738;2024-03-17T08:24:10;14.43;;;10.07;;
315;SDS011;14128;48.686;9.738;2024-03-17T08:26:38;13.37;;;10.37;;
315;SDS011;14128;48.686;9.738;2024-03-17T08:29:05;12.50;;;9.33;;
315;SDS011;14128;48.686;9.738;2024-03-17T08:31:33;11.23;;;9.00;;
315;SDS011;14128;48.686;9.738;2024-03-17T08:34:00;12.80;;;9.30;;
315;SDS011;14128;48.686;9.738;2024-03-17T08:36:27;15.07;;;10.90;;
315;SDS011;14128;48.686;9.738;2024-03-17T08:38:54;14.80;;;9.87;;
315;SDS011;14128;48.686;9.738;2024-03-17T08:41:25;9.70;;;7.87;;
315;SDS011;14128;48.686;9.738;2024-03-17T08:43:52;10.57;;;8.63;;
315;SDS011;14128;48.686;9.738;2024-03-17T08:46:19;13.07;;;8.20;;
315;SDS011;14128;48.686;9.738;2024-03-17T08:48:46;11.20;;;8.40;;
315;SDS011;14128;48.686;9.738;2024-03-17T08:51:13;10.23;;;6.47;;
315;SDS011;14128;48.686;9.738;2024-03-17T08:53:40;5.90;;;4.27;;
315;SDS011;14128;48.686;9.738;2024-03-17T08:56:07;5.70;;;4.43;;
315;SDS011;14128;48.686;9.738;2024-03-17T08:58:36;5.27;;;4.63;;
315;SDS011;14128;48.686;9.738;2024-03-17T09:01:03;5.80;;;4.10;;
315;SDS011;14128;48.686;9.738;2024-03-17T09:03:31;6.07;;;4.37;;
315;SDS011;14128;48.686;9.738;2024-03-17T09:05:58;6.27;;;4.30;;
315;SDS011;14128;48.686;9.738;2024-03-17T09:08:26;6.57;;;5.00;;
315;SDS011;14128;48.686;9.738;2024-03-17T09:10:53;6.20;;;3.97;;
315;SDS011;14128;48.686;9.738;2024-03-17T09:13:21;4.77;;;3.80;;
315;SDS011;14128;48.686;9.738;2024-03-17T09:15:51;7.20;;;5.23;;
315;SDS011;14128;48.686;9.738;2024-03-17T09:18:18;4.53;;;3.73;;
315;SDS011;14128;48.686;9.738;2024-03-17T09:20:46;6.43;;;4.30;;
315;SDS011;14128;48.686;9.738;2024-03-17T09:23:13;4.90;;;3.60;;
315;SDS011;14128;48.686;9.738;2024-03-17T09:25:40;4.33;;;3.47;;
315;SDS011;14128;48.686;9.738;2024-03-17T09:28:07;4.20;;;3.50;;
315;SDS011;14128;48.686;9.738;2024-03-17T09:30:34;5.60;;;3.77;;
315;SDS011;14128;48.686;9.738;2024-03-17T09:33:03;4.47;;;3.57;;
315;SDS011;14128;48.686;9.738;2024-03-17T09:35:30;3.23;;;3.03;;
315;SDS011;14128;48.686;9.738;2024-03-17T09:37:57;3.13;;;2.83;;
315;SDS011;14128;48.686;9.738;2024-03-17T09:40:24;3.57;;;2.97;;
315;SDS011;14128;48.686;9.738;2024-03-17T09:42:51;3.70;;;3.20;;
315;SDS011;14128;48.686;9.738;2024-03-17T09:45:18;3.17;;;2.97;;
315;SDS011;14128;48.686;9.738;2024-03-17T09:47:46;5.63;;;4.30;;
315;SDS011;14128;48.686;9.738;2024-03-17T09:50:15;3.90;;;3.10;;
315;SDS011;14128;48.686;9.738;2024-03-17T09:52:44;5.30;;;3.37;;
315;SDS011;14128;48.686;9.738;2024-03-17T09:55:14;4.30;;;3.00;;
315;SDS011;14128;48.686;9.738;2024-03-17T09:57:42;3.87;;;3.00;;
315;SDS011;14128;48.686;9.738;2024-03-17T10:00:09;6.00;;;3.17;;
315;SDS011;14128;48.686;9.738;2024-03-17T10:02:41;5.40;;;3.47;;
315;SDS011;14128;48.686;9.738;2024-03-17T10:05:16;5.77;;;3.40;;
315;SDS011;14128;48.686;9.738;2024-03-17T10:07:44;7.10;;;3.43;;
315;SDS011;14128;48.686;9.738;2024-03-17T10:10:12;6.63;;;3.93;;
315;SDS011;14128;48.686;9.738;2024-03-17T10:12:41;5.90;;;3.90;;
315;SDS011;14128;48.686;9.738;2024-03-17T10:15:10;5.90;;;4.30;;
315;SDS011;14128;48.686;9.738;2024-03-17T10:17:37;4.90;;;3.70;;
315;SDS011;14128;48.686;9.738;2024-03-17T10:20:11;4.67;;;3.50;;
315;SDS011;14128;48.686;9.738;2024-03-17T10:22:42;5.63;;;3.73;;
315;SDS011;14128;48.686;9.738;2024-03-17T10:25:23;5.20;;;3.40;;
315;SDS011;14128;48.686;9.738;2024-03-17T10:27:51;5.30;;;3.30;;
315;SDS011;14128;48.686;9.738;2024-03-17T10:30:18;3.87;;;2.97;;
315;SDS011;14128;48.686;9.738;2024-03-17T10:32:51;4.07;;;3.10;;
315;SDS011;14128;48.686;9.738;2024-03-17T10:35:26;5.23;;;3.60;;
315;SDS011;14128;48.686;9.738;2024-03-17T10:37:57;3.63;;;2.90;;
315;SDS011;14128;48.686;9.738;2024-03-17T10:40:24;3.60;;;3.30;;
315;SDS011;14128;48.686;9.738;2024-03-17T10:42:52;3.40;;;3.23;;
315;SDS011;14128;48.686;9.738;2024-03-17T10:45:19;4.70;;;3.30;;
315;SDS011;14128;48.686;9.738;2024-03-17T10:47:47;3.87;;;2.80;;
315;SDS011;14128;48.686;9.738;2024-03-17T10:50:16;2.70;;;2.50;;
315;SDS011;14128;48.686;9.738;2024-03-17T10:52:44;5.87;;;3.80;;
315;SDS011;14128;48.686;9.738;2024-03-17T10:55:19;4.07;;;3.50;;
315;SDS011;14128;48.686;9.738;2024-03-17T10:57:47;9.23;;;6.80;;
315;SDS011;14128;48.686;9.738;2024-03-17T11:00:16;14.77;;;10.30;;
315;SDS011;14128;48.686;9.738;2024-03-17T11:02:44;4.40;;;3.47;;
315;SDS011;14128;48.686;9.738;2024-03-17T11:05:13;3.83;;;3.50;;
315;SDS011;14128;48.686;9.738;2024-03-17T11:07:41;7.27;;;4.50;;
315;SDS011;14128;48.686;9.738;2024-03-17T11:10:11;5.80;;;4.07;;
315;SDS011;14128;48.686;9.738;2024-03-17T11:12:43;3.83;;;3.40;;
315;SDS011;14128;48.686;9.738;2024-03-17T11:20:41;4.63;;;3.43;;
315;SDS011;14128;48.686;9.738;2024-03-17T11:23:09;4.77;;;3.50;;
315;SDS011;14128;48.686;9.738;2024-03-17T11:25:36;3.90;;;3.73;;
315;SDS011;14128;48.686;9.738;2024-03-17T11:28:05;6.37;;;4.23;;
315;SDS011;14128;48.686;9.738;2024-03-17T11:30:41;3.57;;;3.33;;
315;SDS011;14128;48.686;9.738;2024-03-17T11:35:51;5.13;;;3.50;;
315;SDS011;14128;48.686;9.738;2024-03-17T11:43:42;2.50;;;2.30;;
315;SDS011;14128;48.686;9.738;2024-03-17T11:46:09;3.03;;;2.80;;
315;SDS011;14128;48.686;9.738;2024-03-17T11:48:36;3.60;;;2.50;;
315;SDS011;14128;48.686;9.738;2024-03-17T11:51:05;2.27;;;1.57;;
315;SDS011;14128;48.686;9.738;2024-03-17T11:53:31;3.30;;;1.77;;
315;SDS011;14128;48.686;9.738;2024-03-17T11:55:59;2.60;;;2.20;;
315;SDS011;14128;48.686;9.738;2024-03-17T11:58:28;4.70;;;2.17;;
315;SDS011;14128;48.686;9.738;2024-03-17T12:00:59;3.47;;;2.67;;
315;SDS011;14128;48.686;9.738;2024-03-17T12:03:26;6.00;;;2.90;;
315;SDS011;14128;48.686;9.738;2024-03-17T12:05:53;2.33;;;2.17;;
315;SDS011;14128;48.686;9.738;2024-03-17T12:08:20;3.07;;;2.03;;
315;SDS011;14128;48.686;9.738;2024-03-17T12:10:48;3.07;;;2.30;;
315;SDS011;14128;48.686;9.738;2024-03-17T12:13:15;3.77;;;2.00;;
315;SDS011;14128;48.686;9.738;2024-03-17T12:15:42;3.70;;;2.60;;
315;SDS011;14128;48.686;9.738;2024-03-17T12:18:20;3.30;;;1.70;;
315;SDS011;14128;48.686;9.738;2024-03-17T12:20:48;5.40;;;2.17;;
315;SDS011;14128;48.686;9.738;2024-03-17T12:23:14;4.00;;;2.07;;
315;SDS011;14128;48.686;9.738;2024-03-17T12:25:46;2.27;;;1.83;;
315;SDS011;14128;48.686;9.738;2024-03-17T12:28:13;1.87;;;1.50;;
315;SDS011;14128;48.686;9.738;2024-03-17T12:30:42;1.93;;;1.40;;
315;SDS011;14128;48.686;9.738;2024-03-17T12:33:09;4.90;;;1.83;;
315;SDS011;14128;48.686;9.738;2024-03-17T12:35:40;2.50;;;1.23;;
315;SDS011;14128;48.686;9.738;2024-03-17T12:38:19;1.23;;;1.00;;
315;SDS011;14128;48.686;9.738;2024-03-17T12:40:46;4.03;;;2.30;;
315;SDS011;14128;48.686;9.738;2024-03-17T12:43:13;2.23;;;1.10;;
315;SDS011;14128;48.686;9.738;2024-03-17T12:45:40;2.43;;;1.57;;
315;SDS011;14128;48.686;9.738;2024-03-17T12:48:11;3.37;;;1.10;;
315;SDS011;14128;48.686;9.738;2024-03-17T12:50:45;2.73;;;1.20;;
315;SDS011;14128;48.686;9.738;2024-03-17T12:53:15;2.80;;;1.37;;
315;SDS011;14128;48.686;9.738;2024-03-17T12:55:42;1.50;;;1.10;;
315;SDS011;14128;48.686;9.738;2024-03-17T12:58:51;3.30;;;1.80;;
315;SDS011;14128;48.686;9.738;2024-03-17T13:01:36;4.07;;;1.80;;
315;SDS011;14128;48.686;9.738;2024-03-17T13:04:07;2.80;;;1.37;;
315;SDS011;14128;48.686;9.738;2024-03-17T13:06:35;2.63;;;1.70;;
315;SDS011;14128;48.686;9.738;2024-03-17T13:09:03;2.00;;;1.07;;
315;SDS011;14128;48.686;9.738;2024-03-17T13:11:30;2.30;;;1.17;;
315;SDS011;14128;48.686;9.738;2024-03-17T13:13:57;2.43;;;1.20;;
315;SDS011;14128;48.686;9.738;2024-03-17T13:16:24;1.60;;;1.23;;
315;SDS011;14128;48.686;9.738;2024-03-17T13:18:52;2.30;;;1.20;;
315;SDS011;14128;48.686;9.738;2024-03-17T13:21:19;1.90;;;1.40;;
315;SDS011;14128;48.686;9.738;2024-03-17T13:23:48;1.90;;;0.80;;
315;SDS011;14128;48.686;9.738;2024-03-17T13:26:15;4.77;;;0.80;;
315;SDS011;14128;48.686;9.738;2024-03-17T13:28:42;2.20;;;1.77;;
315;SDS011;14128;48.686;9.738;2024-03-17T13:31:09;2.20;;;0.93;;
315;SDS011;14128;48.686;9.738;2024-03-17T13:33:38;3.00;;;1.13;;
315;SDS011;14128;48.686;9.738;2024-03-17T13:36:05;4.63;;;1.33;;
315;SDS011;14128;48.686;9.738;2024-03-17T13:38:32;1.47;;;0.87;;
315;SDS011;14128;48.686;9.738;2024-03-17T13:41:01;2.50;;;1.30;;
315;SDS011;14128;48.686;9.738;2024-03-17T13:43:30;5.00;;;3.00;;
315;SDS011;14128;48.686;9.738;2024-03-17T13:45:57;2.00;;;1.27;;
315;SDS011;14128;48.686;9.738;2024-03-17T13:48:24;2.30;;;1.03;;
315;SDS011;14128;48.686;9.738;2024-03-17T13:50:51;2.60;;;1.03;;
315;SDS011;14128;48.686;9.738;2024-03-17T13:53:19;2.30;;;1.17;;
315;SDS011;14128;48.686;9.738;2024-03-17T13:55:47;3.97;;;1.60;;
315;SDS011;14128;48.686;9.738;2024-03-17T13:58:15;3.80;;;1.17;;
315;SDS011;14128;48.686;9.738;2024-03-17T14:00:42;3.40;;;1.50;;
315;SDS011;14128;48.686;9.738;2024-03-17T14:03:10;1.40;;;1.07;;
315;SDS011;14128;48.686;9.738;2024-03-17T14:05:37;3.50;;;1.27;;
315;SDS011;14128;48.686;9.738;2024-03-17T14:08:06;5.13;;;1.33;;
315;SDS011;14128;48.686;9.738;2024-03-17T14:10:32;1.37;;;0.90;;
315;SDS011;14128;48.686;9.738;2024-03-17T14:13:00;1.43;;;1.00;;
315;SDS011;14128;48.686;9.738;2024-03-17T14:15:29;3.60;;;1.10;;
315;SDS011;14128;48.686;9.738;2024-03-17T14:17:56;3.13;;;1.60;;
315;SDS011;14128;48.686;9.738;2024-03-17T14:20:23;5.33;;;1.43;;
315;SDS011;14128;48.686;9.738;2024-03-17T14:22:50;3.30;;;2.07;;
315;SDS011;14128;48.686;9.738;2024-03-17T14:25:19;4.63;;;2.30;;
315;SDS011;14128;48.686;9.738;2024-03-17T14:27:47;1.67;;;1.43;;
315;SDS011;14128;48.686;9.738;2024-03-17T14:30:15;2.97;;;1.20;;
315;SDS011;14128;48.686;9.738;2024-03-17T14:32:44;1.90;;;1.20;;
315;SDS011;14128;48.686;9.738;2024-03-17T14:35:12;2.10;;;1.17;;
315;SDS011;14128;48.686;9.738;2024-03-17T14:37:40;3.30;;;1.30;;
315;SDS011;14128;48.686;9.738;2024-03-17T14:40:08;1.47;;;0.90;;
315;SDS011;14128;48.686;9.738;2024-03-17T14:42:41;4.77;;;1.40;;
315;SDS011;14128;48.686;9.738;2024-03-17T14:45:09;2.17;;;1.03;;
315;SDS011;14128;48.686;9.738;2024-03-17T14:47:36;2.10;;;1.07;;
315;SDS011;14128;48.686;9.738;2024-03-17T14:50:05;2.17;;;1.80;;
315;SDS011;14128;48.686;9.738;2024-03-17T14:52:33;3.03;;;1.10;;
315;SDS011;14128;48.686;9.738;2024-03-17T14:55:01;1.67;;;1.30;;
315;SDS011;14128;48.686;9.738;2024-03-17T14:57:29;2.83;;;1.20;;
315;SDS011;14128;48.686;9.738;2024-03-17T14:59:56;1.07;;;0.90;;
315;SDS011;14128;48.686;9.738;2024-03-17T15:02:24;2.50;;;1.27;;
315;SDS011;14128;48.686;9.738;2024-03-17T15:04:51;2.00;;;1.30;;
315;SDS011;14128;48.686;9.738;2024-03-17T15:07:20;2.10;;;1.87;;
315;SDS011;14128;48.686;9.738;2024-03-17T15:09:48;3.00;;;1.50;;
315;SDS011;14128;48.686;9.738;2024-03-17T15:12:15;1.80;;;0.93;;
315;SDS011;14128;48.686;9.738;2024-03-17T15:14:43;2.80;;;1.97;;
315;SDS011;14128;48.686;9.738;2024-03-17T15:17:11;3.63;;;1.23;;
315;SDS011;14128;48.686;9.738;2024-03-17T15:19:39;1.30;;;1.00;;
315;SDS011;14128;48.686;9.738;2024-03-17T15:22:07;2.53;;;1.13;;
315;SDS011;14128;48.686;9.738;2024-03-17T15:24:36;3.33;;;1.50;;